Time;durP1;ratioP1;P1;durP2;ratioP2;P2;SDS_P1;SDS_P2;PMS_P1;PMS_P2;Temp;Humidity;BMP_temperature;BMP_pressure;BME280_temperature;BME280_humidity;BME280_pressure;Samples;Min_cycle;Max_cycle;Signal;HPM_P1;HPM_P2
2023/03/28 00:00:24;;;;;;;0.20;0.20;;;-1.90;99.90;;;;;;5036498;28;20025;-76
2023/03/28 00:02:50;;;;;;;0.20;0.20;;;-1.90;99.90;;;;;;5018577;28;20070;-76
2023/03/28 00:05:16;;;;;;;0.20;0.20;;;-1.90;99.90;;;;;;5036253;28;20026;-76
2023/03/28 00:07:42;;;;;;;0.30;0.30;;;-1.90;99.90;;;;;;5035832;28;20040;-76
2023/03/28 00:10:08;;;;;;;0.20;0.20;;;-2.00;99.90;;;;;;5036117;28;20071;-76
2023/03/28 00:12:34;;;;;;;0.30;0.30;;;-2.00;99.90;;;;;;5036312;28;20498;-76
2023/03/28 00:15:03;;;;;;;0.20;0.20;;;-2.10;99.90;;;;;;5036084;28;20399;-76
2023/03/28 00:17:29;;;;;;;0.20;0.20;;;-2.10;99.90;;;;;;5035907;28;20395;-76
2023/03/28 00:19:55;;;;;;;0.20;0.20;;;-2.10;99.90;;;;;;5036237;28;20048;-76
2023/03/28 00:22:20;;;;;;;0.28;0.28;;;-2.10;99.90;;;;;;5035263;28;20479;-76
2023/03/28 00:24:47;;;;;;;0.20;0.20;;;-2.10;99.90;;;;;;5035795;28;20499;-76
2023/03/28 00:27:16;;;;;;;0.20;0.20;;;-2.20;99.90;;;;;;5035968;28;20022;-76
2023/03/28 00:29:42;;;;;;;0.20;0.20;;;-2.30;99.90;;;;;;5035806;28;20091;-75
2023/03/28 00:32:08;;;;;;;0.28;0.28;;;-2.40;99.90;;;;;;5035959;28;20053;-76
2023/03/28 00:34:34;;;;;;;0.20;0.20;;;-2.50;99.90;;;;;;5035508;28;20487;-76
2023/03/28 00:37:01;;;;;;;0.20;0.20;;;-2.60;99.90;;;;;;5018190;28;20026;-76
2023/03/28 00:39:28;;;;;;;0.20;0.20;;;-2.60;99.90;;;;;;5017649;28;20029;-76
2023/03/28 00:41:54;;;;;;;0.20;0.20;;;-2.50;99.90;;;;;;5035496;28;20104;-76
2023/03/28 00:44:44;;;;;;;0.20;0.20;;;-2.30;99.90;;;;;;5017863;28;20576;-76
2023/03/28 00:47:43;;;;;;;0.20;0.20;;;-2.20;99.90;;;;;;5035683;28;20064;-76
2023/03/28 00:50:22;;;;;;;0.20;0.20;;;-2.20;99.90;;;;;;5035635;28;20026;-76
2023/03/28 00:53:12;;;;;;;0.17;0.17;;;-2.20;99.90;;;;;;5035286;28;20076;-76
2023/03/28 00:55:43;;;;;;;0.30;0.30;;;-2.30;99.90;;;;;;5017658;28;20092;-75
2023/03/28 00:58:13;;;;;;;0.30;0.30;;;-2.30;99.90;;;;;;5035151;28;20481;-76
2023/03/28 01:00:45;;;;;;;0.20;0.20;;;-2.30;99.90;;;;;;5034986;28;20390;-76
2023/03/28 01:03:12;;;;;;;0.30;0.30;;;-2.30;99.90;;;;;;5017603;28;20017;-76
2023/03/28 01:05:38;;;;;;;0.20;0.20;;;-2.40;99.90;;;;;;5035161;28;20022;-76
2023/03/28 01:08:27;;;;;;;0.20;0.20;;;-2.40;99.90;;;;;;5016846;28;20029;-76
2023/03/28 01:10:53;;;;;;;0.20;0.20;;;-2.40;99.90;;;;;;5034977;28;20063;-76
2023/03/28 01:13:24;;;;;;;0.20;0.20;;;-2.40;99.90;;;;;;5035081;28;20021;-76
2023/03/28 01:15:50;;;;;;;0.20;0.20;;;-2.40;99.90;;;;;;5035448;28;20429;-76
2023/03/28 01:18:21;;;;;;;0.20;0.20;;;-2.30;99.90;;;;;;5034714;28;20025;-76
2023/03/28 01:21:22;;;;;;;0.10;0.10;;;-2.20;99.90;;;;;;5016934;28;20022;-76
2023/03/28 01:23:48;;;;;;;0.20;0.20;;;-2.00;99.90;;;;;;5034765;28;20128;-76
2023/03/28 01:26:31;;;;;;;0.20;0.20;;;-1.90;99.90;;;;;;5034879;28;20431;-76
2023/03/28 01:29:15;;;;;;;;;;;-1.90;99.90;;;;;;5034891;28;20026;-76
2023/03/28 01:32:03;;;;;;;0.28;0.28;;;-1.90;99.90;;;;;;5034359;28;19905;-76
2023/03/28 01:34:52;;;;;;;0.10;0.10;;;-1.80;99.90;;;;;;5034514;28;20384;-76
2023/03/28 01:37:25;;;;;;;0.20;0.20;;;-1.80;99.90;;;;;;5015899;28;20033;-76
2023/03/28 01:40:10;;;;;;;0.20;0.20;;;-1.70;99.90;;;;;;5034251;28;20014;-76
2023/03/28 01:43:06;;;;;;;0.20;0.20;;;-1.70;99.90;;;;;;5034179;28;20083;-76
2023/03/28 01:45:42;;;;;;;0.20;0.20;;;-1.80;99.90;;;;;;5034530;28;20025;-76
2023/03/28 01:48:16;;;;;;;0.20;0.20;;;-1.80;99.90;;;;;;5056313;23;20053;-76
2023/03/28 01:51:20;;;;;;;0.20;0.20;;;-1.80;99.90;;;;;;5033667;28;20491;-76
2023/03/28 01:54:15;;;;;;;0.30;0.30;;;-1.80;99.90;;;;;;4983825;28;20042;-76
2023/03/28 01:56:56;;;;;;;0.20;0.20;;;-1.80;99.90;;;;;;4988013;28;20065;-76
2023/03/28 01:59:55;;;;;;;0.20;0.20;;;-1.80;99.90;;;;;;5014603;28;20026;-76
2023/03/28 02:02:32;;;;;;;0.30;0.30;;;-1.80;99.90;;;;;;5013513;28;20483;-76
2023/03/28 02:05:03;;;;;;;0.20;0.20;;;-1.90;99.90;;;;;;5033933;28;20029;-76
2023/03/28 02:07:32;;;;;;;0.20;0.20;;;-1.90;99.90;;;;;;5031973;23;20038;-76
2023/03/28 02:10:02;;;;;;;0.20;0.20;;;-1.90;99.90;;;;;;5014089;28;20026;-76
2023/03/28 02:12:49;;;;;;;0.30;0.30;;;-1.90;99.90;;;;;;5013988;28;20041;-76
2023/03/28 02:15:34;;;;;;;0.20;0.20;;;-1.90;99.90;;;;;;5013687;28;20033;-76
2023/03/28 02:18:07;;;;;;;0.20;0.20;;;-2.00;99.90;;;;;;4996370;28;20022;-76
2023/03/28 02:20:36;;;;;;;0.20;0.20;;;-2.00;99.90;;;;;;5002085;28;20067;-76
2023/03/28 02:23:10;;;;;;;0.20;0.20;;;-2.10;99.90;;;;;;5014088;28;20056;-76
2023/03/28 02:25:37;;;;;;;0.20;0.20;;;-2.10;99.90;;;;;;5013609;28;20069;-76
2023/03/28 02:28:06;;;;;;;0.20;0.20;;;-2.20;99.90;;;;;;4996420;28;20037;-76
2023/03/28 02:30:33;;;;;;;0.20;0.20;;;-2.30;99.90;;;;;;5013729;28;20068;-76
2023/03/28 02:33:00;;;;;;;0.10;0.10;;;-2.40;99.90;;;;;;4996530;28;20447;-76
2023/03/28 02:35:49;;;;;;;0.30;0.30;;;-2.40;99.90;;;;;;5013029;28;20050;-76
2023/03/28 02:38:30;;;;;;;0.20;0.20;;;-2.50;99.90;;;;;;4996165;28;20037;-76
2023/03/28 02:41:26;;;;;;;0.20;0.20;;;-2.50;99.90;;;;;;5013618;28;20026;-76
2023/03/28 02:44:17;;;;;;;0.20;0.20;;;-2.50;99.90;;;;;;5013544;28;20467;-76
2023/03/28 02:47:01;;;;;;;0.15;0.15;;;-2.60;99.90;;;;;;5013348;28;20029;-76
2023/03/28 02:49:45;;;;;;;0.20;0.20;;;-2.60;99.90;;;;;;5013501;28;20369;-76
2023/03/28 02:52:22;;;;;;;0.20;0.20;;;-2.70;99.90;;;;;;5013341;28;20018;-76
2023/03/28 02:54:55;;;;;;;0.20;0.20;;;-2.80;99.90;;;;;;5013874;28;20028;-76
2023/03/28 02:57:33;;;;;;;0.20;0.20;;;-2.80;99.90;;;;;;5013225;28;20451;-76
2023/03/28 03:00:10;;;;;;;0.30;0.30;;;-2.80;99.90;;;;;;5013716;28;20026;-75
2023/03/28 03:02:36;;;;;;;0.20;0.20;;;-2.80;99.90;;;;;;5013339;28;20072;-76
2023/03/28 03:05:04;;;;;;;0.20;0.20;;;-2.80;99.90;;;;;;5013609;28;20029;-76
2023/03/28 03:07:31;;;;;;;0.20;0.20;;;-2.70;99.90;;;;;;5012993;28;20057;-76
2023/03/28 03:09:56;;;;;;;0.20;0.20;;;-2.80;99.90;;;;;;5013031;28;20049;-76
2023/03/28 03:12:22;;;;;;;0.10;0.10;;;-2.80;99.90;;;;;;5013235;28;20060;-76
2023/03/28 03:14:52;;;;;;;0.17;0.17;;;-2.80;99.90;;;;;;5013268;28;20029;-76
2023/03/28 03:17:17;;;;;;;0.20;0.20;;;-2.80;99.90;;;;;;5013169;28;20080;-76
2023/03/28 03:19:43;;;;;;;0.20;0.20;;;-2.80;99.90;;;;;;5013280;28;20030;-76
2023/03/28 03:22:09;;;;;;;0.20;0.20;;;-2.90;99.90;;;;;;5012514;28;20033;-76
2023/03/28 03:24:35;;;;;;;0.30;0.30;;;-2.90;99.90;;;;;;4995876;28;20026;-76
2023/03/28 03:27:01;;;;;;;0.20;0.20;;;-3.00;99.90;;;;;;5012880;28;20068;-76
2023/03/28 03:29:27;;;;;;;0.30;0.30;;;-3.00;99.90;;;;;;4995629;28;20075;-76
2023/03/28 03:31:52;;;;;;;0.30;0.30;;;-3.10;99.90;;;;;;5012582;28;20026;-76
2023/03/28 03:34:18;;;;;;;0.20;0.20;;;-3.10;99.90;;;;;;5013382;28;20033;-76
2023/03/28 03:36:43;;;;;;;0.20;0.20;;;-3.20;99.90;;;;;;4995501;28;20022;-76
2023/03/28 03:39:09;;;;;;;0.20;0.20;;;-3.10;99.90;;;;;;4995102;28;20030;-76
2023/03/28 03:41:35;;;;;;;0.20;0.20;;;-3.20;99.90;;;;;;5013208;28;20026;-76
2023/03/28 03:44:01;;;;;;;0.30;0.30;;;-3.20;99.90;;;;;;5012890;28;20029;-76
2023/03/28 03:46:26;;;;;;;0.20;0.20;;;-3.20;99.90;;;;;;4995142;28;20487;-76
2023/03/28 03:48:52;;;;;;;0.30;0.30;;;-3.20;99.90;;;;;;5013202;28;20018;-76
2023/03/28 03:51:18;;;;;;;0.20;0.20;;;-3.30;99.90;;;;;;5012752;28;20033;-76
2023/03/28 03:53:43;;;;;;;0.20;0.20;;;-3.20;99.90;;;;;;5012483;28;20045;-76
2023/03/28 03:56:09;;;;;;;0.30;0.30;;;-3.20;99.90;;;;;;5012864;28;20029;-76
2023/03/28 03:58:35;;;;;;;0.20;0.20;;;-3.10;99.90;;;;;;5009963;28;20056;-76
2023/03/28 04:01:01;;;;;;;0.20;0.20;;;-3.20;99.90;;;;;;5015279;28;20026;-75
2023/03/28 04:03:27;;;;;;;0.20;0.20;;;-3.20;99.90;;;;;;5007190;28;20076;-76
2023/03/28 04:05:53;;;;;;;0.28;0.28;;;-3.20;99.90;;;;;;4996942;28;20022;-76
2023/03/28 04:08:19;;;;;;;0.20;0.20;;;-3.20;99.90;;;;;;5014694;28;20137;-76
2023/03/28 04:10:45;;;;;;;0.20;0.20;;;-3.20;99.90;;;;;;4996118;28;20397;-76
2023/03/28 04:13:11;;;;;;;0.20;0.20;;;-3.20;99.90;;;;;;4998554;28;20022;-76
2023/03/28 04:15:36;;;;;;;0.20;0.20;;;-3.20;99.90;;;;;;5015569;28;20029;-76
2023/03/28 04:18:03;;;;;;;0.20;0.20;;;-3.20;99.90;;;;;;5001402;28;20030;-76
2023/03/28 04:20:30;;;;;;;0.20;0.20;;;-3.20;99.90;;;;;;4996487;28;20105;-76
2023/03/28 04:23:07;;;;;;;0.20;0.20;;;-3.20;99.90;;;;;;4996434;28;20034;-76
2023/03/28 04:25:33;;;;;;;0.20;0.20;;;-3.30;99.90;;;;;;4978715;28;20029;-76
2023/03/28 04:28:00;;;;;;;0.22;0.22;;;-3.20;99.90;;;;;;5023846;23;20054;-76
2023/03/28 04:30:26;;;;;;;0.20;0.20;;;-3.30;99.90;;;;;;5016159;28;20024;-76
2023/03/28 04:32:53;;;;;;;0.17;0.17;;;-3.30;99.90;;;;;;5016178;28;20107;-76
2023/03/28 04:35:19;;;;;;;0.10;0.10;;;-3.30;99.90;;;;;;5015523;28;20032;-75
2023/03/28 04:37:46;;;;;;;0.20;0.20;;;-3.30;99.90;;;;;;5015810;28;20026;-75
2023/03/28 04:40:14;;;;;;;0.20;0.20;;;-3.30;99.90;;;;;;4999450;28;20080;-76
2023/03/28 04:42:40;;;;;;;0.20;0.20;;;-3.30;99.90;;;;;;4998413;28;20380;-76
2023/03/28 04:45:07;;;;;;;0.30;0.30;;;-3.30;99.90;;;;;;5015832;28;20032;-76
2023/03/28 04:47:33;;;;;;;0.20;0.20;;;-3.20;99.90;;;;;;5015567;28;20047;-75
2023/03/28 04:49:58;;;;;;;0.20;0.20;;;-3.20;99.90;;;;;;5015257;28;20061;-76
2023/03/28 04:52:24;;;;;;;0.20;0.20;;;-3.10;99.90;;;;;;5011948;28;20033;-76
2023/03/28 04:54:50;;;;;;;0.20;0.20;;;-3.10;99.90;;;;;;4978507;28;20030;-76
2023/03/28 04:57:16;;;;;;;0.20;0.20;;;-2.90;99.90;;;;;;4996368;28;20026;-75
2023/03/28 04:59:42;;;;;;;0.20;0.20;;;-2.90;99.90;;;;;;4996858;28;20035;-76
2023/03/28 05:02:08;;;;;;;0.20;0.20;;;-2.90;99.90;;;;;;5012268;28;20033;-76
2023/03/28 05:04:34;;;;;;;0.30;0.30;;;-2.90;99.90;;;;;;5015298;28;20387;-76
2023/03/28 05:06:59;;;;;;;0.15;0.15;;;-2.80;99.90;;;;;;5015330;28;20021;-76
2023/03/28 05:09:28;;;;;;;0.20;0.20;;;-2.70;99.90;;;;;;5015485;28;20145;-76
2023/03/28 05:11:53;;;;;;;0.10;0.10;;;-2.70;99.90;;;;;;5013549;28;20041;-76
2023/03/28 05:14:19;;;;;;;0.20;0.20;;;-2.50;99.90;;;;;;4998164;28;20026;-76
2023/03/28 05:16:45;;;;;;;0.30;0.30;;;-2.50;99.90;;;;;;5047364;23;20032;-76
2023/03/28 05:19:10;;;;;;;0.10;0.10;;;-2.30;99.90;;;;;;5035180;28;20483;-76
2023/03/28 05:21:36;;;;;;;0.20;0.20;;;-2.20;99.90;;;;;;5016896;28;20028;-76
2023/03/28 05:24:04;;;;;;;0.10;0.10;;;-2.30;99.90;;;;;;5034806;28;20029;-76
2023/03/28 05:26:29;;;;;;;0.20;0.20;;;-2.40;99.90;;;;;;5016730;28;20083;-76
2023/03/28 05:28:55;;;;;;;0.20;0.20;;;-2.50;99.90;;;;;;5034701;28;20483;-76
2023/03/28 05:31:29;;;;;;;0.20;0.20;;;-2.60;99.90;;;;;;5034713;28;20018;-76
2023/03/28 05:33:54;;;;;;;0.20;0.20;;;-2.80;99.90;;;;;;5034571;28;20025;-76
2023/03/28 05:36:20;;;;;;;0.20;0.20;;;-2.90;99.90;;;;;;5034636;28;20075;-76
2023/03/28 05:38:45;;;;;;;0.20;0.20;;;-2.90;99.90;;;;;;5106573;23;20122;-76
2023/03/28 05:41:11;;;;;;;0.20;0.20;;;-3.00;99.90;;;;;;5034605;28;20033;-76
2023/03/28 05:43:36;;;;;;;0.22;0.22;;;-3.00;99.90;;;;;;5034439;28;20179;-76
2023/03/28 05:46:02;;;;;;;0.20;0.20;;;-3.10;99.90;;;;;;5034049;28;20501;-76
2023/03/28 05:48:28;;;;;;;0.20;0.20;;;-3.00;99.90;;;;;;5016873;28;20112;-77
2023/03/28 05:50:53;;;;;;;0.20;0.20;;;-3.00;99.90;;;;;;5034316;28;20030;-75
2023/03/28 05:53:19;;;;;;;0.20;0.20;;;-2.90;99.90;;;;;;5033743;28;20032;-75
2023/03/28 05:55:44;;;;;;;0.20;0.20;;;-2.90;99.90;;;;;;5034298;28;20064;-74
2023/03/28 05:58:12;;;;;;;0.20;0.20;;;-2.80;99.90;;;;;;5033856;28;20033;-76
2023/03/28 06:00:38;;;;;;;0.20;0.20;;;-2.70;99.90;;;;;;5033968;28;20550;-76
2023/03/28 06:03:06;;;;;;;0.20;0.20;;;-2.60;99.90;;;;;;5033798;28;20033;-76
2023/03/28 06:05:32;;;;;;;0.10;0.10;;;-2.60;99.90;;;;;;5033418;28;20021;-75
2023/03/28 06:07:57;;;;;;;0.20;0.20;;;-2.50;99.90;;;;;;5033394;28;20021;-75
2023/03/28 06:10:24;;;;;;;0.20;0.20;;;-2.30;99.90;;;;;;5033880;28;20103;-76
2023/03/28 06:12:50;;;;;;;0.15;0.15;;;-2.20;99.90;;;;;;5016142;28;20030;-76
2023/03/28 06:15:16;;;;;;;0.20;0.20;;;-2.10;99.90;;;;;;5015679;28;20031;-76
2023/03/28 06:17:43;;;;;;;0.20;0.20;;;-1.90;99.90;;;;;;5033731;28;20029;-76
2023/03/28 06:20:12;;;;;;;0.22;0.22;;;-1.80;99.90;;;;;;5033884;28;20526;-76
2023/03/28 06:22:41;;;;;;;0.10;0.10;;;-1.70;99.90;;;;;;5033027;28;20506;-77
2023/03/28 06:25:07;;;;;;;0.10;0.10;;;-1.50;99.90;;;;;;5030502;28;20506;-77
2023/03/28 06:27:33;;;;;;;0.20;0.20;;;-1.40;99.90;;;;;;5057926;23;20518;-76
2023/03/28 06:29:59;;;;;;;0.10;0.10;;;-1.30;99.90;;;;;;5026453;28;20038;-76
2023/03/28 06:32:25;;;;;;;0.20;0.20;;;-1.10;99.90;;;;;;5025607;28;20105;-76
2023/03/28 06:34:50;;;;;;;0.10;0.10;;;-0.90;99.90;;;;;;5032933;28;20036;-76
2023/03/28 06:37:16;;;;;;;0.20;0.20;;;-0.60;99.90;;;;;;5033471;28;20022;-76
2023/03/28 06:39:42;;;;;;;0.20;0.20;;;-0.50;99.90;;;;;;5033405;28;20033;-76
2023/03/28 06:42:07;;;;;;;0.20;0.20;;;-0.20;99.90;;;;;;5033243;28;20029;-76
2023/03/28 06:44:33;;;;;;;0.20;0.20;;;0.00;99.90;;;;;;5033436;28;20025;-76
2023/03/28 06:46:58;;;;;;;0.20;0.20;;;0.10;99.90;;;;;;5099949;23;20049;-76
2023/03/28 06:49:24;;;;;;;0.10;0.10;;;0.40;99.90;;;;;;5033388;28;20029;-76
2023/03/28 06:51:50;;;;;;;0.20;0.20;;;0.50;99.90;;;;;;5033296;28;20025;-76
2023/03/28 06:54:15;;;;;;;0.10;0.10;;;0.70;99.90;;;;;;5033485;28;20025;-78
2023/03/28 06:56:41;;;;;;;0.20;0.20;;;0.90;99.90;;;;;;5033378;28;20112;-78
2023/03/28 06:59:06;;;;;;;0.15;0.15;;;1.00;99.90;;;;;;5034708;28;20029;-78
2023/03/28 07:01:32;;;;;;;0.13;0.13;;;1.10;99.90;;;;;;5032258;28;20026;-77
2023/03/28 07:03:58;;;;;;;0.20;0.20;;;1.30;99.90;;;;;;5024838;28;20502;-78
2023/03/28 07:06:26;;;;;;;0.20;0.20;;;1.40;99.90;;;;;;5033532;28;20018;-77
2023/03/28 07:08:52;;;;;;;0.10;0.10;;;1.60;99.90;;;;;;5029879;28;20022;-77
2023/03/28 07:11:17;;;;;;;0.10;0.10;;;1.80;99.90;;;;;;5019467;28;20034;-77
2023/03/28 07:13:43;;;;;;;0.17;0.17;;;2.00;99.90;;;;;;5012748;28;20033;-77
2023/03/28 07:16:13;;;;;;;0.20;0.20;;;2.20;99.90;;;;;;5021764;28;20033;-77
2023/03/28 07:18:42;;;;;;;0.20;0.20;;;2.10;99.90;;;;;;5007709;28;20038;-77
2023/03/28 07:21:10;;;;;;;0.20;0.20;;;2.20;99.90;;;;;;4995185;28;20407;-77
2023/03/28 07:23:35;;;;;;;0.15;0.15;;;2.40;99.90;;;;;;5019354;28;20025;-76
2023/03/28 07:26:01;;;;;;;0.20;0.20;;;2.50;99.90;;;;;;5032714;28;20032;-77
2023/03/28 07:28:27;;;;;;;0.20;0.20;;;2.60;99.90;;;;;;5029736;28;20109;-76
2023/03/28 07:30:53;;;;;;;0.20;0.20;;;2.90;99.90;;;;;;5014563;28;20084;-77
2023/03/28 07:33:19;;;;;;;0.20;0.20;;;3.10;99.90;;;;;;5012880;28;20112;-76
2023/03/28 07:35:44;;;;;;;0.17;0.17;;;3.30;99.90;;;;;;5015945;28;20060;-76
2023/03/28 07:38:10;;;;;;;0.20;0.20;;;3.30;99.90;;;;;;4998366;28;20037;-76
2023/03/28 07:40:36;;;;;;;0.30;0.30;;;3.50;99.90;;;;;;5034481;28;20056;-76
2023/03/28 07:43:01;;;;;;;0.20;0.20;;;3.70;99.90;;;;;;5018962;28;20056;-76
2023/03/28 07:45:27;;;;;;;0.13;0.13;;;3.90;99.90;;;;;;5013357;28;20018;-78
2023/03/28 07:47:52;;;;;;;0.20;0.20;;;4.00;99.90;;;;;;5019782;28;20041;-76
2023/03/28 07:50:18;;;;;;;0.20;0.20;;;4.30;99.90;;;;;;5015981;28;20037;-77
2023/03/28 07:52:45;;;;;;;0.20;0.20;;;4.50;99.90;;;;;;5016066;28;20022;-76
2023/03/28 07:55:12;;;;;;;0.30;0.30;;;4.80;99.90;;;;;;5019306;28;20025;-77
2023/03/28 07:57:38;;;;;;;0.20;0.20;;;4.80;99.90;;;;;;5109659;23;20053;-77
2023/03/28 08:00:09;;;;;;;0.20;0.20;;;5.00;99.90;;;;;;5016725;28;20026;-77
2023/03/28 08:02:35;;;;;;;0.20;0.20;;;5.30;99.90;;;;;;5018719;28;20057;-76
2023/03/28 08:05:00;;;;;;;0.30;0.30;;;5.50;99.90;;;;;;5015997;28;20499;-77
2023/03/28 08:07:27;;;;;;;0.10;0.10;;;5.60;99.90;;;;;;5016195;28;20026;-77
2023/03/28 08:09:52;;;;;;;0.20;0.20;;;5.60;99.90;;;;;;4998500;28;20018;-77
2023/03/28 08:12:20;;;;;;;0.30;0.30;;;5.90;99.90;;;;;;5016107;28;20105;-77
2023/03/28 08:14:46;;;;;;;0.20;0.20;;;6.00;99.90;;;;;;4997377;28;20450;-77
2023/03/28 08:17:11;;;;;;;0.20;0.20;;;6.20;99.90;;;;;;5015785;28;20030;-76
2023/03/28 08:19:37;;;;;;;0.25;0.25;;;6.30;99.90;;;;;;5030143;28;20037;-76
2023/03/28 08:22:03;;;;;;;0.20;0.20;;;6.30;99.90;;;;;;5035713;28;20108;-76
2023/03/28 08:24:28;;;;;;;0.20;0.20;;;6.50;99.90;;;;;;5033688;28;20033;-76
2023/03/28 08:26:56;;;;;;;0.30;0.30;;;6.50;99.90;;;;;;5022727;28;20036;-76
2023/03/28 08:29:22;;;;;;;0.20;0.20;;;6.70;99.90;;;;;;5031858;28;20021;-77
2023/03/28 08:31:48;;;;;;;0.17;0.17;;;6.80;99.90;;;;;;5016020;28;20022;-76
2023/03/28 08:34:14;;;;;;;0.20;0.20;;;7.00;99.90;;;;;;5016658;28;20032;-77
2023/03/28 08:36:40;;;;;;;0.20;0.20;;;7.10;99.90;;;;;;5015762;28;20037;-77
2023/03/28 08:39:06;;;;;;;0.15;0.15;;;7.10;99.90;;;;;;4997313;28;20049;-76
2023/03/28 08:41:55;;;;;;;0.20;0.20;;;7.20;99.90;;;;;;5016921;28;20593;-77
2023/03/28 08:44:54;;;;;;;0.20;0.20;;;7.30;99.90;;;;;;4998285;28;20048;-76
2023/03/28 08:47:30;;;;;;;0.17;0.17;;;7.30;99.90;;;;;;5047045;23;20041;-77
2023/03/28 08:50:00;;;;;;;0.20;0.20;;;7.40;99.90;;;;;;5034900;28;20014;-77
2023/03/28 08:52:27;;;;;;;0.17;0.17;;;7.30;99.90;;;;;;5035354;28;20017;-77
2023/03/28 08:55:18;;;;;;;0.20;0.20;;;7.70;99.90;;;;;;5023851;28;20037;-77
2023/03/28 08:57:44;;;;;;;0.20;0.20;;;8.00;99.90;;;;;;5015294;28;20160;-77
2023/03/28 09:00:26;;;;;;;0.20;0.20;;;7.90;99.90;;;;;;5007069;28;20034;-77
2023/03/28 09:02:52;;;;;;;0.20;0.20;;;8.30;99.90;;;;;;5004213;28;20034;-77
2023/03/28 09:05:47;;;;;;;0.20;0.20;;;8.70;99.90;;;;;;5034320;28;20151;-77
2023/03/28 09:08:31;;;;;;;0.10;0.10;;;8.50;99.90;;;;;;5011380;28;20055;-77
2023/03/28 09:10:58;;;;;;;;;;;8.60;99.90;;;;;;5016272;28;20022;-77
2023/03/28 09:13:38;;;;;;;0.20;0.20;;;8.80;99.90;;;;;;5014885;28;20260;-77
2023/03/28 09:16:07;;;;;;;0.20;0.20;;;8.80;99.90;;;;;;5015265;28;20030;-77
2023/03/28 09:18:55;;;;;;;0.20;0.20;;;9.00;99.90;;;;;;4997458;28;20030;-77
2023/03/28 09:21:30;;;;;;;0.20;0.20;;;9.30;99.90;;;;;;5014567;28;20377;-76
2023/03/28 09:24:07;;;;;;;0.20;0.20;;;9.60;99.90;;;;;;5016920;28;20028;-77
2023/03/28 09:27:30;;;;;;;;;;;;;;;;;;;;;
2023/03/28 09:30:15;;;;;;;0.20;0.20;;;9.20;99.90;;;;;;4934656;29;20038;-77
2023/03/28 09:32:41;;;;;;;0.20;0.20;;;9.40;99.90;;;;;;4978053;28;20029;-77
2023/03/28 09:35:21;;;;;;;0.20;0.20;;;9.30;99.90;;;;;;5011198;28;20034;-77
2023/03/28 09:37:59;;;;;;;0.20;0.20;;;9.10;99.90;;;;;;5014001;28;20032;-77
2023/03/28 09:40:30;;;;;;;0.17;0.17;;;8.80;99.90;;;;;;5010530;28;20072;-77
2023/03/28 09:43:23;;;;;;;0.20;0.20;;;8.40;99.90;;;;;;5014908;28;20057;-77
2023/03/28 09:45:59;;;;;;;0.17;0.17;;;8.10;99.90;;;;;;5014495;28;20026;-77
2023/03/28 09:48:28;;;;;;;0.20;0.20;;;7.90;99.90;;;;;;4996975;28;20021;-77
2023/03/28 09:50:58;;;;;;;0.13;0.13;;;8.00;99.90;;;;;;5014117;28;20014;-77
2023/03/28 09:53:32;;;;;;;0.20;0.20;;;8.20;99.90;;;;;;4996777;28;20084;-77
2023/03/28 09:56:12;;;;;;;;;;;8.10;99.90;;;;;;5013906;28;20553;-77
2023/03/28 09:58:55;;;;;;;0.10;0.10;;;7.90;99.90;;;;;;5055460;22;20331;-77
2023/03/28 10:01:45;;;;;;;0.15;0.15;;;7.70;99.90;;;;;;5033760;28;20101;-77
2023/03/28 10:04:26;;;;;;;0.20;0.20;;;7.30;99.90;;;;;;5006267;28;20080;-77
2023/03/28 10:06:53;;;;;;;0.20;0.20;;;6.80;99.90;;;;;;5033705;28;20499;-77
2023/03/28 10:09:23;;;;;;;0.20;0.20;;;6.60;99.90;;;;;;5016408;28;20030;-76
2023/03/28 10:11:58;;;;;;;0.20;0.20;;;6.50;99.90;;;;;;5016039;28;20025;-77
2023/03/28 10:14:36;;;;;;;0.20;0.20;;;6.40;99.90;;;;;;5022255;28;20502;-76
2023/03/28 10:17:05;;;;;;;0.20;0.20;;;6.30;99.90;;;;;;5013352;28;20030;-76
2023/03/28 10:19:34;;;;;;;0.20;0.20;;;6.00;99.90;;;;;;5000822;28;20023;-76
2023/03/28 10:22:06;;;;;;;0.20;0.20;;;5.80;99.90;;;;;;4994392;28;20081;-76
2023/03/28 10:24:33;;;;;;;0.20;0.20;;;5.70;99.90;;;;;;4994648;28;20113;-76
2023/03/28 10:27:22;;;;;;;0.20;0.20;;;5.60;99.90;;;;;;4997310;28;20089;-76
2023/03/28 10:29:49;;;;;;;0.20;0.20;;;5.70;99.90;;;;;;5015800;28;20028;-77
2023/03/28 10:32:27;;;;;;;0.20;0.20;;;5.90;99.90;;;;;;5033370;28;20092;-77
2023/03/28 10:35:06;;;;;;;0.20;0.20;;;6.10;99.90;;;;;;5033090;28;20542;-77
2023/03/28 10:37:53;;;;;;;0.20;0.20;;;6.20;99.90;;;;;;5039760;23;20132;-77
2023/03/28 10:40:19;;;;;;;0.20;0.20;;;6.50;99.90;;;;;;5014875;28;20494;-77
2023/03/28 10:42:48;;;;;;;0.17;0.17;;;6.70;99.90;;;;;;5008118;28;20045;-77
2023/03/28 10:45:19;;;;;;;0.20;0.20;;;7.30;99.90;;;;;;5007869;28;20044;-77
2023/03/28 10:47:50;;;;;;;0.20;0.20;;;7.50;99.90;;;;;;5000686;28;20030;-77
2023/03/28 10:50:34;;;;;;;0.20;0.20;;;7.90;99.90;;;;;;4985409;28;20454;-77
2023/03/28 10:53:30;;;;;;;0.30;0.30;;;8.00;99.90;;;;;;4991634;28;20052;-77
2023/03/28 10:56:17;;;;;;;0.20;0.20;;;8.60;99.90;;;;;;4994290;28;20061;-77
2023/03/28 10:58:54;;;;;;;0.20;0.20;;;8.60;99.90;;;;;;4990548;28;20104;-74
2023/03/28 11:01:24;;;;;;;0.15;0.15;;;9.10;99.90;;;;;;4994681;28;20498;-74
2023/03/28 11:04:26;;;;;;;0.20;0.20;;;9.30;99.90;;;;;;5021365;28;20068;-75
2023/03/28 11:07:04;;;;;;;0.20;0.20;;;9.10;99.90;;;;;;5028857;28;20493;-74
2023/03/28 11:09:46;;;;;;;0.20;0.20;;;8.90;99.90;;;;;;5008210;28;20501;-74
2023/03/28 11:12:38;;;;;;;0.20;0.20;;;9.00;99.90;;;;;;5014743;28;20044;-74
2023/03/28 11:15:33;;;;;;;0.20;0.20;;;9.00;99.90;;;;;;5005248;28;20506;-74
2023/03/28 11:18:15;;;;;;;0.20;0.20;;;8.80;99.90;;;;;;5015778;28;20036;-74
2023/03/28 11:20:59;;;;;;;0.10;0.10;;;8.40;99.90;;;;;;5016436;28;20499;-74
2023/03/28 11:23:47;;;;;;;0.20;0.20;;;8.20;99.90;;;;;;5010090;28;20037;-74
2023/03/28 11:26:22;;;;;;;0.20;0.20;;;8.50;99.90;;;;;;5007035;28;20033;-75
2023/03/28 11:29:18;;;;;;;0.10;0.10;;;8.90;99.90;;;;;;5006231;28;20014;-74
2023/03/28 11:31:55;;;;;;;0.15;0.15;;;9.00;99.90;;;;;;5031339;28;20025;-74
2023/03/28 11:34:29;;;;;;;0.20;0.20;;;8.90;99.90;;;;;;5031628;28;20032;-74
2023/03/28 11:37:02;;;;;;;0.20;0.20;;;8.80;99.90;;;;;;4986154;28;20032;-73
2023/03/28 11:39:47;;;;;;;0.30;0.30;;;8.70;99.90;;;;;;4992167;28;20035;-73
2023/03/28 11:42:37;;;;;;;0.20;0.20;;;8.40;99.90;;;;;;5009654;28;20029;-74
2023/03/28 11:45:11;;;;;;;0.13;0.13;;;8.10;99.90;;;;;;5012030;28;20430;-74
2023/03/28 11:47:45;;;;;;;0.20;0.20;;;7.90;99.90;;;;;;5071473;23;20060;-74
2023/03/28 11:50:43;;;;;;;0.20;0.20;;;7.70;99.90;;;;;;5032291;28;20021;-73
2023/03/28 11:53:16;;;;;;;0.20;0.20;;;7.30;99.90;;;;;;5032639;28;20021;-73
2023/03/28 11:56:02;;;;;;;;;;;7.00;99.90;;;;;;5032199;28;20045;-75
2023/03/28 11:58:30;;;;;;;0.20;0.20;;;6.80;99.90;;;;;;5031884;28;19909;-75
2023/03/28 12:01:04;;;;;;;0.20;0.20;;;6.40;99.90;;;;;;5032550;28;20036;-74
2023/03/28 12:03:54;;;;;;;0.20;0.20;;;6.00;99.90;;;;;;5014511;28;20030;-74
2023/03/28 12:06:42;;;;;;;0.30;0.30;;;5.60;99.90;;;;;;5011187;28;20508;-74
2023/03/28 12:09:29;;;;;;;0.20;0.20;;;5.40;99.90;;;;;;5012517;28;20024;-74
2023/03/28 12:12:08;;;;;;;0.20;0.20;;;5.30;99.90;;;;;;4994783;28;20122;-74
2023/03/28 12:14:57;;;;;;;0.20;0.20;;;5.50;99.90;;;;;;5030838;28;20372;-74
2023/03/28 12:17:28;;;;;;;0.10;0.10;;;5.80;99.90;;;;;;5031188;28;20512;-74
2023/03/28 12:19:57;;;;;;;0.20;0.20;;;6.20;99.90;;;;;;5032164;28;20036;-75
2023/03/28 12:22:43;;;;;;;0.20;0.20;;;6.60;99.90;;;;;;5017731;28;20036;-74
2023/03/28 12:25:27;;;;;;;0.20;0.20;;;7.00;99.90;;;;;;5035900;28;20510;-74
2023/03/28 12:28:10;;;;;;;0.30;0.30;;;6.80;99.90;;;;;;5017455;28;20025;-74
2023/03/28 12:30:44;;;;;;;0.10;0.10;;;6.40;99.90;;;;;;5035659;28;20029;-73
2023/03/28 12:33:12;;;;;;;0.20;0.20;;;5.80;99.90;;;;;;5035676;28;20149;-73
2023/03/28 12:35:42;;;;;;;0.30;0.30;;;5.60;99.90;;;;;;5035433;28;20030;-73
2023/03/28 12:38:31;;;;;;;0.20;0.20;;;5.50;99.90;;;;;;5067394;23;20088;-73
2023/03/28 12:41:05;;;;;;;0.20;0.20;;;5.40;99.90;;;;;;5034814;28;20022;-74
2023/03/28 12:43:42;;;;;;;0.10;0.10;;;5.50;99.90;;;;;;5035478;28;20113;-74
2023/03/28 12:46:16;;;;;;;0.10;0.10;;;5.50;99.90;;;;;;5035357;28;20032;-74
2023/03/28 12:48:50;;;;;;;0.20;0.20;;;5.50;99.90;;;;;;5035320;28;20025;-74
2023/03/28 12:51:26;;;;;;;0.20;0.20;;;5.60;99.90;;;;;;5035112;28;20036;-74
2023/03/28 12:54:21;;;;;;;0.20;0.20;;;5.60;99.90;;;;;;5016890;28;20080;-74
2023/03/28 12:56:57;;;;;;;0.20;0.20;;;5.70;99.90;;;;;;5040758;23;20029;-74
2023/03/28 12:59:38;;;;;;;0.20;0.20;;;5.80;99.90;;;;;;4997612;28;20399;-74
2023/03/28 13:02:45;;;;;;;0.20;0.20;;;5.90;99.90;;;;;;5014577;28;20022;-74
2023/03/28 13:05:24;;;;;;;0.20;0.20;;;6.10;99.90;;;;;;4995741;28;20045;-74
2023/03/28 13:08:15;;;;;;;0.20;0.20;;;6.10;99.90;;;;;;4983111;28;20053;-74
2023/03/28 13:10:54;;;;;;;0.20;0.20;;;6.20;99.90;;;;;;4995980;28;20092;-74
2023/03/28 13:13:52;;;;;;;0.20;0.20;;;6.30;99.90;;;;;;5014836;28;20022;-74
2023/03/28 13:16:40;;;;;;;0.10;0.10;;;6.60;99.90;;;;;;4995210;28;20042;-73
2023/03/28 13:19:11;;;;;;;0.20;0.20;;;6.90;99.90;;;;;;4997025;28;20399;-74
2023/03/28 13:21:51;;;;;;;0.20;0.20;;;7.20;99.90;;;;;;5014952;28;20100;-74